Time;durP1;ratioP1;P1;durP2;ratioP2;P2;SDS_P1;SDS_P2;PMS_P1;PMS_P2;Temp;Humidity;BMP_temperature;BMP_pressure;BME280_temperature;BME280_humidity;BME280_pressure;Samples;Min_cycle;Max_cycle;Signal;HPM_P1;HPM_P2
2022/03/25 00:00:10;;;;;;;;;;;;;;;17.38;51.45;100381.19;2073706;28;19978;-62
2022/03/25 00:01:10;;;;;;;;;;;;;;;17.38;51.45;100383.06;2076369;28;19963;-62
2022/03/25 00:02:11;;;;;;;;;;;;;;;17.37;51.31;100384.94;2073189;28;20035;-62
2022/03/25 00:03:12;;;;;;;;;;;;;;;17.36;51.54;100384.03;2075162;28;19913;-62
2022/03/25 00:04:13;;;;;;;;;;;;;;;17.36;51.43;100380.47;2074333;28;19956;-62
2022/03/25 00:05:13;;;;;;;;;;;;;;;17.35;51.65;100387.78;2072907;28;19920;-62
2022/03/25 00:06:14;;;;;;;;;;;;;;;17.36;51.71;100384.03;2073529;28;19928;-62
2022/03/25 00:07:14;;;;;;;;;;;;;;;17.35;51.57;100378.75;2073398;28;19920;-62
2022/03/25 00:08:14;;;;;;;;;;;;;;;17.34;51.55;100385.16;2075399;28;19920;-62
2022/03/25 00:09:15;;;;;;;;;;;;;;;17.34;51.40;100377.88;2073478;28;19952;-62
2022/03/25 00:10:15;;;;;;;;;;;;;;;17.35;51.58;100381.47;2074636;28;19917;-62
2022/03/25 00:11:15;;;;;;;;;;;;;;;17.33;51.73;100381.59;2073054;28;19917;-62
2022/03/25 00:12:16;;;;;;;;;;;;;;;17.34;51.57;100374.28;2073353;28;19920;-62
2022/03/25 00:13:16;;;;;;;;;;;;;;;17.33;51.60;100380.72;2075455;28;19920;-62
2022/03/25 00:14:16;;;;;;;;;;;;;;;17.34;51.58;100379.72;2074761;28;19927;-62
2022/03/25 00:15:18;;;;;;;;;;;;;;;17.32;51.58;100379.88;2073740;28;19920;-60
2022/03/25 00:16:18;;;;;;;;;;;;;;;17.31;51.77;100378.13;2073476;28;20016;-62
2022/03/25 00:17:18;;;;;;;;;;;;;;;17.31;51.82;100374.53;2072718;28;19913;-62
2022/03/25 00:18:19;;;;;;;;;;;;;;;17.32;51.50;100378.97;2072543;28;20007;-62
2022/03/25 00:19:19;;;;;;;;;;;;;;;17.30;51.86;100379.13;2082513;28;20842;-62
2022/03/25 00:20:19;;;;;;;;;;;;;;;17.30;51.70;100372.81;2090870;28;19924;-63
2022/03/25 00:21:20;;;;;;;;;;;;;;;17.30;51.72;100378.28;2088641;28;19917;-62
2022/03/25 00:22:20;;;;;;;;;;;;;;;17.31;51.74;100374.53;2089798;28;19924;-62
2022/03/25 00:23:21;;;;;;;;;;;;;;;17.30;51.65;100379.13;2090137;28;19924;-62
2022/03/25 00:24:23;;;;;;;;;;;;;;;17.30;52.00;100379.13;2089499;28;20677;-62
2022/03/25 00:25:23;;;;;;;;;;;;;;;17.31;51.82;100380.00;2090563;28;19916;-62
2022/03/25 00:26:23;;;;;;;;;;;;;;;17.31;52.00;100380.84;2090222;28;21193;-62
2022/03/25 00:27:24;;;;;;;;;;;;;;;17.32;51.93;100378.97;2092150;28;20035;-62
2022/03/25 00:28:24;;;;;;;;;;;;;;;17.34;51.79;100385.16;2088854;28;19928;-62
2022/03/25 00:29:25;;;;;;;;;;;;;;;17.34;51.90;100383.34;2091770;28;19916;-62
2022/03/25 00:30:25;;;;;;;;;;;;;;;17.36;51.72;100383.19;2091518;28;19924;-62
2022/03/25 00:31:25;;;;;;;;;;;;;;;17.35;51.69;100374.16;2091182;28;19934;-62
2022/03/25 00:32:26;;;;;;;;;;;;;;;17.37;51.77;100382.22;2091079;28;19919;-62
2022/03/25 00:33:26;;;;;;;;;;;;;;;17.36;51.65;100380.47;2089962;28;20533;-62
2022/03/25 00:34:26;;;;;;;;;;;;;;;17.38;51.85;100386.66;2091270;28;20019;-61
2022/03/25 00:35:27;;;;;;;;;;;;;;;17.39;51.77;100382.06;2091904;28;19941;-61
2022/03/25 00:36:27;;;;;;;;;;;;;;;17.42;51.84;100382.66;2092914;28;20526;-62
2022/03/25 00:37:27;;;;;;;;;;;;;;;17.41;51.69;100383.66;2087036;28;20155;-61
2022/03/25 00:38:28;;;;;;;;;;;;;;;17.42;51.78;100389.97;2086751;28;19921;-61
2022/03/25 00:39:28;;;;;;;;;;;;;;;17.41;51.57;100383.66;2093692;28;19920;-61
2022/03/25 00:40:28;;;;;;;;;;;;;;;17.40;51.60;100381.94;2093148;28;19920;-61
2022/03/25 00:41:28;;;;;;;;;;;;;;;17.42;51.63;100388.13;2091197;28;20593;-61
2022/03/25 00:42:30;;;;;;;;;;;;;;;17.42;51.49;100379.06;2094381;28;19927;-62
2022/03/25 00:43:30;;;;;;;;;;;;;;;17.42;51.85;100381.78;2093357;28;19920;-62
2022/03/25 00:44:31;;;;;;;;;;;;;;;17.42;51.57;100382.66;2094272;28;20155;-61
2022/03/25 00:45:32;;;;;;;;;;;;;;;17.42;51.55;100379.94;2090739;28;20126;-61
2022/03/25 00:46:33;;;;;;;;;;;;;;;17.42;51.68;100379.94;2094372;28;19977;-62
2022/03/25 00:47:33;;;;;;;;;;;;;;;17.40;51.66;100379.22;2090230;28;19972;-61
2022/03/25 00:48:33;;;;;;;;;;;;;;;17.39;51.74;100377.47;2090287;28;19927;-62
2022/03/25 00:49:35;;;;;;;;;;;;;;;17.37;51.79;100379.47;2091872;28;19920;-62
2022/03/25 00:50:35;;;;;;;;;;;;;;;17.37;51.94;100374.03;2090207;28;19946;-62
2022/03/25 00:51:36;;;;;;;;;;;;;;;17.38;51.95;100374.88;2092423;28;19963;-62
2022/03/25 00:52:37;;;;;;;;;;;;;;;17.36;52.09;100378.59;2090890;28;19916;-62
2022/03/25 00:53:37;;;;;;;;;;;;;;;17.36;51.90;100377.72;2091889;28;19923;-61
2022/03/25 00:54:38;;;;;;;;;;;;;;;17.34;51.92;100369.72;2090095;28;19920;-61
2022/03/25 00:55:38;;;;;;;;;;;;;;;17.34;51.95;100375.16;2092839;28;19920;-61
2022/03/25 00:56:39;;;;;;;;;;;;;;;17.35;51.91;100365.13;2090940;28;20031;-61
2022/03/25 00:57:39;;;;;;;;;;;;;;;17.33;52.05;100367.09;2092567;28;19920;-62
2022/03/25 00:58:39;;;;;;;;;;;;;;;17.33;51.97;100367.97;2090566;28;19920;-61
2022/03/25 00:59:40;;;;;;;;;;;;;;;17.32;51.91;100362.63;2081689;28;20310;-61
2022/03/25 01:00:41;;;;;;;;;;;;;;;17.31;51.91;100361.78;2080442;28;19920;-62
2022/03/25 01:01:42;;;;;;;;;;;;;;;17.32;52.00;100359.91;2088129;28;20308;-62
2022/03/25 01:02:42;;;;;;;;;;;;;;;17.31;52.13;100363.66;2091567;28;19974;-61
2022/03/25 01:03:43;;;;;;;;;;;;;;;17.31;51.94;100361.78;2094432;28;19920;-62
2022/03/25 01:04:43;;;;;;;;;;;;;;;17.31;51.95;100369.94;2093257;28;19919;-62
2022/03/25 01:05:44;;;;;;;;;;;;;;;17.31;52.13;100358.19;2094219;28;19920;-62
2022/03/25 01:06:46;;;;;;;;;;;;;;;17.31;52.12;100358.19;2092265;28;19992;-62
2022/03/25 01:07:46;;;;;;;;;;;;;;;17.30;52.00;100357.34;2093187;28;19920;-62
2022/03/25 01:08:47;;;;;;;;;;;;;;;17.30;51.93;100362.78;2094743;28;19920;-62
2022/03/25 01:09:47;;;;;;;;;;;;;;;17.30;52.02;100361.94;2095116;28;20407;-62
2022/03/25 01:10:47;;;;;;;;;;;;;;;17.30;52.03;100361.94;2091140;28;20367;-61
2022/03/25 01:11:48;;;;;;;;;;;;;;;17.30;51.97;100356.47;2093455;28;19920;-62
2022/03/25 01:12:49;;;;;;;;;;;;;;;17.30;51.87;100353.75;2092934;28;20009;-62
2022/03/25 01:13:49;;;;;;;;;;;;;;;17.30;51.97;100356.47;2092755;28;19927;-62
2022/03/25 01:14:49;;;;;;;;;;;;;;;17.31;51.91;100359.06;2088002;28;19989;-62
2022/03/25 01:15:49;;;;;;;;;;;;;;;17.31;51.99;100352.75;2093886;28;20043;-62
2022/03/25 01:16:52;;;;;;;;;;;;;;;17.30;51.78;100353.75;2091110;28;20212;-62
2022/03/25 01:17:52;;;;;;;;;;;;;;;17.30;52.05;100351.03;2084760;28;20003;-61
2022/03/25 01:18:52;;;;;;;;;;;;;;;17.30;51.82;100346.44;2084597;28;20046;-62
2022/03/25 01:19:53;;;;;;;;;;;;;;;17.30;51.96;100346.44;2092695;28;19924;-61
2022/03/25 01:20:53;;;;;;;;;;;;;;;17.30;51.93;100351.03;2094100;28;19912;-62
2022/03/25 01:21:54;;;;;;;;;;;;;;;17.30;51.98;100346.44;2093232;28;19912;-61
2022/03/25 01:22:55;;;;;;;;;;;;;;;17.29;51.93;100347.41;2091985;28;19916;-61
2022/03/25 01:23:56;;;;;;;;;;;;;;;17.29;52.01;100347.41;2091914;28;20385;-62
2022/03/25 01:24:57;;;;;;;;;;;;;;;17.29;52.11;100343.84;2084077;28;19924;-62
2022/03/25 01:25:57;;;;;;;;;;;;;;;17.30;51.84;100345.56;2083593;28;19926;-61
2022/03/25 01:26:57;;;;;;;;;;;;;;;17.29;51.91;100338.38;2091162;28;20283;-62
2022/03/25 01:27:57;;;;;;;;;;;;;;;17.29;51.88;100336.50;2092640;28;20884;-62
2022/03/25 01:28:58;;;;;;;;;;;;;;;17.29;51.95;100338.38;2093317;28;19927;-62
2022/03/25 01:29:59;;;;;;;;;;;;;;;17.28;51.94;100339.41;2090697;28;19920;-62
2022/03/25 01:31:00;;;;;;;;;;;;;;;17.29;51.95;100338.38;2091498;28;20405;-61
2022/03/25 01:32:01;;;;;;;;;;;;;;;17.30;51.97;100329.22;2089999;28;20029;-61
2022/03/25 01:33:03;;;;;;;;;;;;;;;17.29;51.77;100327.47;2094054;28;19955;-61
2022/03/25 01:34:03;;;;;;;;;;;;;;;17.29;51.93;100328.34;2091487;28;19920;-62
2022/03/25 01:35:09;;;;;;;;;;;;;;;17.30;52.25;100324.63;2093373;28;20031;-61
2022/03/25 01:36:09;;;;;;;;;;;;;;;17.30;51.97;100318.34;2091700;28;19927;-61
2022/03/25 01:37:11;;;;;;;;;;;;;;;17.31;52.18;100326.34;2091793;28;19927;-61
2022/03/25 01:38:13;;;;;;;;;;;;;;;17.31;52.03;100320.03;2088711;28;19928;-61
2022/03/25 01:39:13;;;;;;;;;;;;;;;17.31;52.12;100320.03;2092404;28;19924;-62
2022/03/25 01:40:14;;;;;;;;;;;;;;;17.32;52.18;100321.75;2093049;28;19920;-61
2022/03/25 01:41:18;;;;;;;;;;;;;;;17.33;51.94;100328.97;2092937;28;19920;-62
2022/03/25 01:42:28;;;;;;;;;;;;;;;17.32;52.19;100319.94;2090587;28;20268;-62
2022/03/25 01:43:28;;;;;;;;;;;;;;;17.34;52.13;100319.78;2093357;28;19920;-61
2022/03/25 01:44:29;;;;;;;;;;;;;;;17.33;52.07;100321.63;2092743;28;19923;-62
2022/03/25 01:45:32;;;;;;;;;;;;;;;17.34;52.21;100314.31;2093163;28;19965;-61
2022/03/25 01:46:32;;;;;;;;;;;;;;;17.34;52.10;100319.78;2086613;28;19924;-62
2022/03/25 01:47:34;;;;;;;;;;;;;;;17.34;52.14;100325.22;2092048;28;19916;-61
2022/03/25 01:48:34;;;;;;;;;;;;;;;17.34;52.08;100319.78;2088743;28;19927;-61
2022/03/25 01:49:35;;;;;;;;;;;;;;;17.34;52.12;100315.22;2088219;28;19920;-62
2022/03/25 01:50:36;;;;;;;;;;;;;;;17.34;52.16;100320.66;2087954;28;19998;-61
2022/03/25 01:51:37;;;;;;;;;;;;;;;17.33;52.27;100315.34;2088647;28;19977;-62
2022/03/25 01:52:37;;;;;;;;;;;;;;;17.33;52.15;100312.59;2089546;28;19989;-61
2022/03/25 01:53:38;;;;;;;;;;;;;;;17.34;51.92;100315.22;2090227;28;19922;-61
2022/03/25 01:54:38;;;;;;;;;;;;;;;17.34;51.96;100314.31;2089111;28;20363;-62
2022/03/25 01:55:39;;;;;;;;;;;;;;;17.34;52.21;100308.88;2091751;28;19916;-62
2022/03/25 01:56:39;;;;;;;;;;;;;;;17.35;51.95;100310.63;2092451;28;19920;-61
2022/03/25 01:57:39;;;;;;;;;;;;;;;17.34;51.81;100309.75;2091911;28;20570;-62
2022/03/25 01:58:40;;;;;;;;;;;;;;;17.34;52.15;100308.88;2091417;28;19968;-61
2022/03/25 01:59:40;;;;;;;;;;;;;;;17.34;52.10;100314.31;2092832;28;19916;-61
2022/03/25 02:00:41;;;;;;;;;;;;;;;17.34;52.07;100303.44;2090735;28;19916;-62
2022/03/25 02:01:42;;;;;;;;;;;;;;;17.33;52.10;100307.16;2092756;28;20668;-61
2022/03/25 02:02:43;;;;;;;;;;;;;;;17.33;52.10;100307.16;2090481;28;20371;-61
2022/03/25 02:03:44;;;;;;;;;;;;;;;17.33;51.91;100308.03;2091830;28;20284;-61
2022/03/25 02:04:44;;;;;;;;;;;;;;;17.33;52.11;100307.16;2091556;28;20487;-61
2022/03/25 02:05:46;;;;;;;;;;;;;;;17.33;52.06;100307.16;2091818;28;20817;-62
2022/03/25 02:06:47;;;;;;;;;;;;;;;17.33;52.23;100307.16;2092694;28;20096;-62
2022/03/25 02:07:48;;;;;;;;;;;;;;;17.31;51.93;100303.69;2091096;28;20159;-62
2022/03/25 02:08:48;;;;;;;;;;;;;;;17.31;52.04;100304.56;2088185;28;19916;-61
2022/03/25 02:09:48;;;;;;;;;;;;;;;17.31;51.92;100303.69;2090368;28;19924;-62
2022/03/25 02:10:49;;;;;;;;;;;;;;;17.30;52.05;100300.13;2087512;28;19981;-61
2022/03/25 02:11:49;;;;;;;;;;;;;;;17.30;52.00;100302.00;2092286;28;19927;-62
2022/03/25 02:12:49;;;;;;;;;;;;;;;17.30;52.13;100307.44;2091733;28;19916;-61
2022/03/25 02:13:49;;;;;;;;;;;;;;;17.28;51.96;100293.94;2088513;28;19923;-62
2022/03/25 02:14:51;;;;;;;;;;;;;;;17.28;51.97;100298.53;2089627;28;19928;-61
2022/03/25 02:15:52;;;;;;;;;;;;;;;17.28;52.17;100298.53;2092507;28;19920;-62
2022/03/25 02:16:52;;;;;;;;;;;;;;;17.27;52.17;100297.66;2091644;28;20010;-62
2022/03/25 02:17:52;;;;;;;;;;;;;;;17.27;52.44;100297.66;2091632;28;19912;-62
2022/03/25 02:18:53;;;;;;;;;;;;;;;17.27;52.28;100302.22;2091367;28;20375;-62
2022/03/25 02:19:53;;;;;;;;;;;;;;;17.26;52.36;100295.06;2091843;28;19965;-62
2022/03/25 02:20:53;;;;;;;;;;;;;;;17.27;52.29;100296.78;2090061;28;19918;-62
2022/03/25 02:21:53;;;;;;;;;;;;;;;17.26;52.06;100300.50;2092613;28;19919;-62
2022/03/25 02:22:54;;;;;;;;;;;;;;;17.25;52.21;100290.63;2089393;28;20357;-61
2022/03/25 02:23:54;;;;;;;;;;;;;;;17.25;52.16;100293.34;2092294;28;20584;-61
2022/03/25 02:24:55;;;;;;;;;;;;;;;17.25;52.37;100296.06;2082839;28;20020;-61
2022/03/25 02:25:55;;;;;;;;;;;;;;;17.23;52.31;100292.63;2083298;28;19982;-61
2022/03/25 02:26:56;;;;;;;;;;;;;;;17.24;52.41;100297.91;2090622;28;19920;-62
2022/03/25 02:27:58;;;;;;;;;;;;;;;17.24;52.40;100297.06;2090427;28;19974;-62
2022/03/25 02:29:00;;;;;;;;;;;;;;;17.24;52.35;100297.06;2090274;28;19942;-61
2022/03/25 02:30:00;;;;;;;;;;;;;;;17.23;52.36;100295.34;2091953;28;20335;-62
2022/03/25 02:31:00;;;;;;;;;;;;;;;17.24;52.21;100291.59;2091852;28;20276;-61
2022/03/25 02:32:01;;;;;;;;;;;;;;;17.24;52.23;100291.59;2092314;28;19920;-62
2022/03/25 02:33:02;;;;;;;;;;;;;;;17.24;52.14;100291.59;2091599;28;20796;-62
2022/03/25 02:34:04;;;;;;;;;;;;;;;17.23;52.34;100292.63;2092158;28;19931;-61
2022/03/25 02:35:05;;;;;;;;;;;;;;;17.24;52.39;100294.34;2091885;28;19926;-62
2022/03/25 02:36:08;;;;;;;;;;;;;;;17.24;52.26;100291.59;2091915;28;19924;-61
2022/03/25 02:37:08;;;;;;;;;;;;;;;17.25;52.16;100298.81;2090972;28;19959;-62
2022/03/25 02:38:09;;;;;;;;;;;;;;;17.23;52.15;100290.75;2089453;28;19919;-61
2022/03/25 02:39:10;;;;;;;;;;;;;;;17.24;52.26;100297.06;2085914;28;20470;-61
2022/03/25 02:40:11;;;;;;;;;;;;;;;17.24;52.13;100280.72;2090490;28;19927;-61
2022/03/25 02:41:11;;;;;;;;;;;;;;;17.23;52.29;100284.44;2091205;28;19920;-62
2022/03/25 02:42:11;;;;;;;;;;;;;;;17.24;52.13;100278.84;2090178;28;20310;-61
2022/03/25 02:43:12;;;;;;;;;;;;;;;17.25;52.13;100282.44;2086113;28;19938;-62
2022/03/25 02:44:12;;;;;;;;;;;;;;;17.27;52.04;100280.44;2090068;28;19920;-62
2022/03/25 02:45:19;;;;;;;;;;;;;;;17.26;52.24;100276.84;2091584;28;19969;-61
2022/03/25 02:46:19;;;;;;;;;;;;;;;17.27;52.16;100285.88;2083417;28;19913;-61
2022/03/25 02:47:20;;;;;;;;;;;;;;;17.29;52.04;100283.91;2089302;28;19985;-62
2022/03/25 02:48:20;;;;;;;;;;;;;;;17.28;52.28;100282.19;2090916;28;19970;-62
2022/03/25 02:49:21;;;;;;;;;;;;;;;17.29;52.12;100278.44;2090363;28;19919;-61
2022/03/25 02:50:21;;;;;;;;;;;;;;;17.29;52.17;100278.44;2090655;28;19958;-61
2022/03/25 02:51:22;;;;;;;;;;;;;;;17.29;52.15;100273.00;2090803;28;19916;-62
2022/03/25 02:52:22;;;;;;;;;;;;;;;17.29;52.13;100270.28;2090742;28;19916;-61
2022/03/25 02:53:22;;;;;;;;;;;;;;;17.29;51.95;100270.28;2089824;28;19959;-61
2022/03/25 02:54:22;;;;;;;;;;;;;;;17.30;52.26;100277.47;2089912;28;19912;-61
2022/03/25 02:55:24;;;;;;;;;;;;;;;17.30;52.21;100269.28;2090357;28;19912;-61
2022/03/25 02:56:25;;;;;;;;;;;;;;;17.30;51.95;100269.28;2092668;28;20283;-61
2022/03/25 02:57:25;;;;;;;;;;;;;;;17.29;52.21;100273.00;2089810;28;20021;-62
2022/03/25 02:58:25;;;;;;;;;;;;;;;17.30;52.24;100274.75;2090844;28;19958;-62
2022/03/25 02:59:26;;;;;;;;;;;;;;;17.31;52.19;100281.91;2090623;28;19952;-62
2022/03/25 03:00:26;;;;;;;;;;;;;;;17.31;52.30;100276.44;2085448;28;19924;-61
2022/03/25 03:01:27;;;;;;;;;;;;;;;17.30;52.12;100274.75;2091990;28;20259;-61
2022/03/25 03:02:27;;;;;;;;;;;;;;;17.30;52.35;100274.75;2091493;28;19920;-61
2022/03/25 03:03:27;;;;;;;;;;;;;;;17.30;52.14;100285.63;2088110;28;19971;-62
2022/03/25 03:04:28;;;;;;;;;;;;;;;17.30;52.43;100280.19;2092167;28;20440;-62
2022/03/25 03:05:29;;;;;;;;;;;;;;;17.29;52.22;100281.16;2090912;28;19916;-61
2022/03/25 03:06:29;;;;;;;;;;;;;;;17.29;52.29;100275.72;2089304;28;20539;-62
2022/03/25 03:07:29;;;;;;;;;;;;;;;17.29;52.47;100283.91;2090396;28;20121;-61
2022/03/25 03:08:30;;;;;;;;;;;;;;;17.28;52.39;100274.00;2090090;28;19941;-61
2022/03/25 03:09:30;;;;;;;;;;;;;;;17.27;52.30;100274.97;2091186;28;19920;-61
2022/03/25 03:10:31;;;;;;;;;;;;;;;17.25;52.31;100277.88;2089970;28;19912;-61
2022/03/25 03:11:31;;;;;;;;;;;;;;;17.26;52.56;100273.28;2091931;28;19919;-61
2022/03/25 03:12:32;;;;;;;;;;;;;;;17.25;52.42;100277.88;2090943;28;20412;-61
2022/03/25 03:13:32;;;;;;;;;;;;;;;17.25;52.46;100277.00;2091601;28;20240;-61
2022/03/25 03:14:32;;;;;;;;;;;;;;;17.25;52.48;100288.75;2090974;28;20390;-61
2022/03/25 03:15:33;;;;;;;;;;;;;;;17.26;52.09;100287.75;2091729;28;19928;-61
2022/03/25 03:16:33;;;;;;;;;;;;;;;17.24;52.23;100280.72;2089786;28;19916;-62
2022/03/25 03:17:33;;;;;;;;;;;;;;;17.26;52.49;100284.16;2089856;28;19954;-62
2022/03/25 03:18:34;;;;;;;;;;;;;;;17.24;52.32;100276.13;2082857;28;19921;-62
2022/03/25 03:19:34;;;;;;;;;;;;;;;17.24;52.48;100280.72;2084232;28;21515;-61
2022/03/25 03:20:34;;;;;;;;;;;;;;;17.24;52.40;100276.13;2082874;28;20699;-62
2022/03/25 03:21:35;;;;;;;;;;;;;;;17.24;52.50;100280.72;2082487;28;19926;-62
2022/03/25 03:22:35;;;;;;;;;;;;;;;17.23;52.28;100276.28;2083250;28;19958;-61
2022/03/25 03:23:36;;;;;;;;;;;;;;;17.24;52.43;100280.72;2080723;28;20463;-61
2022/03/25 03:24:36;;;;;;;;;;;;;;;17.24;52.28;100275.25;2082995;28;19927;-62
2022/03/25 03:25:36;;;;;;;;;;;;;;;17.23;52.19;100276.28;2081863;28;19955;-62
2022/03/25 03:26:37;;;;;;;;;;;;;;;17.23;52.44;100263.50;2082632;28;19942;-61
2022/03/25 03:27:37;;;;;;;;;;;;;;;17.24;52.34;100272.53;2082412;28;19920;-61
2022/03/25 03:28:37;;;;;;;;;;;;;;;17.24;52.29;100280.72;2084087;28;19950;-61
2022/03/25 03:29:38;;;;;;;;;;;;;;;17.24;52.52;100275.25;2081246;28;20477;-61
2022/03/25 03:30:38;;;;;;;;;;;;;;;17.23;52.36;100273.53;2083532;28;19971;-61
2022/03/25 03:31:39;;;;;;;;;;;;;;;17.23;52.50;100274.41;2083439;28;19951;-61
2022/03/25 03:32:39;;;;;;;;;;;;;;;17.22;52.27;100272.69;2083151;28;19927;-61
2022/03/25 03:33:40;;;;;;;;;;;;;;;17.22;52.17;100272.69;2083125;28;19916;-62
2022/03/25 03:34:40;;;;;;;;;;;;;;;17.23;52.36;100273.53;2082802;28;19927;-62
2022/03/25 03:35:41;;;;;;;;;;;;;;;17.23;52.24;100274.41;2082152;28;19917;-61
2022/03/25 03:36:41;;;;;;;;;;;;;;;17.23;52.23;100268.94;2082226;28;19930;-62
2022/03/25 03:37:42;;;;;;;;;;;;;;;17.23;52.49;100270.81;2079318;28;19916;-61
2022/03/25 03:38:43;;;;;;;;;;;;;;;17.22;52.42;100266.34;2083090;28;19920;-62
2022/03/25 03:39:43;;;;;;;;;;;;;;;17.22;52.35;100272.69;2084760;28;19973;-61
2022/03/25 03:40:43;;;;;;;;;;;;;;;17.22;52.38;100269.97;2083374;28;20217;-61
2022/03/25 03:41:43;;;;;;;;;;;;;;;17.22;52.40;100269.06;2083247;28;20442;-61
2022/03/25 03:42:44;;;;;;;;;;;;;;;17.22;52.41;100269.06;2083288;28;19932;-61
2022/03/25 03:43:44;;;;;;;;;;;;;;;17.23;52.35;100270.81;2084087;28;19920;-62
2022/03/25 03:44:45;;;;;;;;;;;;;;;17.23;52.41;100268.09;2081602;28;20918;-62
2022/03/25 03:45:45;;;;;;;;;;;;;;;17.24;52.35;100269.81;2078377;28;19921;-61
2022/03/25 03:46:45;;;;;;;;;;;;;;;17.24;52.43;100269.81;2082731;28;19916;-62
2022/03/25 03:47:46;;;;;;;;;;;;;;;17.24;52.48;100264.34;2079479;28;19920;-61
2022/03/25 03:48:47;;;;;;;;;;;;;;;17.26;52.24;100270.53;2076648;28;20425;-62
2022/03/25 03:49:47;;;;;;;;;;;;;;;17.26;52.22;100262.38;2082947;28;19925;-61
2022/03/25 03:50:49;;;;;;;;;;;;;;;17.27;52.45;100269.53;2084023;28;19927;-61
2022/03/25 03:51:49;;;;;;;;;;;;;;;17.26;52.41;100263.22;2083933;28;19967;-61
2022/03/25 03:52:50;;;;;;;;;;;;;;;17.26;52.29;100263.22;2082372;28;19923;-61
2022/03/25 03:53:50;;;;;;;;;;;;;;;17.27;52.46;100264.09;2082958;28;19959;-62
2022/03/25 03:54:50;;;;;;;;;;;;;;;17.27;52.32;100261.34;2083564;28;19939;-61
2022/03/25 03:55:50;;;;;;;;;;;;;;;17.27;52.29;100270.41;2082443;28;19955;-61
2022/03/25 03:56:51;;;;;;;;;;;;;;;17.27;52.41;100264.09;2083058;28;20253;-61
2022/03/25 03:57:51;;;;;;;;;;;;;;;17.27;52.19;100264.09;2083177;28;20364;-62
2022/03/25 03:58:51;;;;;;;;;;;;;;;17.27;52.33;100258.63;2081064;28;19962;-61
2022/03/25 03:59:52;;;;;;;;;;;;;;;17.27;52.23;100262.25;2076697;28;19921;-61
2022/03/25 04:00:52;;;;;;;;;;;;;;;17.28;52.35;100265.84;2081638;28;19916;-62
2022/03/25 04:01:53;;;;;;;;;;;;;;;17.28;52.44;100266.69;2079158;28;19928;-61
2022/03/25 04:02:54;;;;;;;;;;;;;;;17.28;52.36;100265.84;2082782;28;20492;-61
2022/03/25 04:03:54;;;;;;;;;;;;;;;17.27;52.38;100269.53;2079394;28;19931;-61
2022/03/25 04:04:54;;;;;;;;;;;;;;;17.28;52.37;100271.28;2082902;28;20637;-62
2022/03/25 04:05:55;;;;;;;;;;;;;;;17.28;52.30;100265.84;2082963;28;20663;-62
2022/03/25 04:06:55;;;;;;;;;;;;;;;17.27;52.38;100264.09;2083442;28;19955;-61
2022/03/25 04:07:55;;;;;;;;;;;;;;;17.27;52.29;100266.81;2082108;28;19935;-62
2022/03/25 04:08:56;;;;;;;;;;;;;;;17.27;52.41;100264.97;2081533;28;20441;-61
2022/03/25 04:09:57;;;;;;;;;;;;;;;17.27;52.36;100261.34;2076864;28;20470;-61
2022/03/25 04:10:58;;;;;;;;;;;;;;;17.27;52.32;100269.53;2082116;28;20535;-61
2022/03/25 04:11:59;;;;;;;;;;;;;;;17.27;52.63;100264.09;2083392;28;20818;-61
2022/03/25 04:12:59;;;;;;;;;;;;;;;17.27;52.54;100270.41;2079278;28;19916;-62
2022/03/25 04:13:59;;;;;;;;;;;;;;;17.28;52.28;100268.56;2083399;28;20480;-61
2022/03/25 04:14:59;;;;;;;;;;;;;;;17.27;52.64;100266.81;2081382;28;20369;-62
2022/03/25 04:16:00;;;;;;;;;;;;;;;17.26;52.55;100265.09;2083885;28;20383;-61
2022/03/25 04:17:00;;;;;;;;;;;;;;;17.26;52.65;100262.38;2081709;28;19923;-61
2022/03/25 04:18:00;;;;;;;;;;;;;;;17.26;52.49;100262.38;2080228;28;19920;-62
2022/03/25 04:19:01;;;;;;;;;;;;;;;17.25;52.32;100266.97;2085071;28;20571;-62
2022/03/25 04:20:01;;;;;;;;;;;;;;;17.25;52.31;100272.41;2091714;28;19920;-62
2022/03/25 04:21:01;;;;;;;;;;;;;;;17.25;52.48;100268.84;2090635;28;20275;-61
2022/03/25 04:22:02;;;;;;;;;;;;;;;17.25;52.55;100266.09;2091608;28;19947;-62
2022/03/25 04:23:02;;;;;;;;;;;;;;;17.25;52.48;100266.97;2086863;28;19927;-61
2022/03/25 04:24:03;;;;;;;;;;;;;;;17.25;52.51;100271.56;2091675;28;19926;-62
2022/03/25 04:25:05;;;;;;;;;;;;;;;17.24;52.58;100265.22;2089746;28;19920;-62
2022/03/25 04:26:06;;;;;;;;;;;;;;;17.24;52.52;100272.53;2091296;28;19967;-61
2022/03/25 04:27:06;;;;;;;;;;;;;;;17.23;52.73;100268.09;2090483;28;19923;-62
2022/03/25 04:28:07;;;;;;;;;;;;;;;17.22;52.66;100266.34;2091720;28;20402;-61
2022/03/25 04:29:07;;;;;;;;;;;;;;;17.21;52.69;100262.78;2086469;28;19924;-61
2022/03/25 04:30:08;;;;;;;;;;;;;;;17.22;52.72;100266.34;2090967;28;20468;-61
2022/03/25 04:31:09;;;;;;;;;;;;;;;17.22;52.51;100266.34;2088590;28;20081;-62
2022/03/25 04:32:09;;;;;;;;;;;;;;;17.20;52.70;100262.91;2091256;28;19963;-61
2022/03/25 04:33:09;;;;;;;;;;;;;;;17.21;52.56;100265.50;2090762;28;19927;-62
2022/03/25 04:34:10;;;;;;;;;;;;;;;17.20;52.82;100269.22;2091126;28;19919;-61
2022/03/25 04:35:10;;;;;;;;;;;;;;;17.21;52.63;100264.63;2091182;28;19966;-62
2022/03/25 04:36:11;;;;;;;;;;;;;;;17.20;52.67;100263.78;2091262;28;20625;-62
2022/03/25 04:37:11;;;;;;;;;;;;;;;17.20;52.52;100268.34;2090895;28;20365;-61
2022/03/25 04:38:11;;;;;;;;;;;;;;;17.19;52.50;100259.31;2091011;28;20605;-61
2022/03/25 04:39:12;;;;;;;;;;;;;;;17.19;52.71;100266.63;2090904;28;20375;-62
2022/03/25 04:40:13;;;;;;;;;;;;;;;17.19;52.87;100266.63;2091238;28;19927;-61
2022/03/25 04:41:14;;;;;;;;;;;;;;;17.18;52.63;100265.78;2087934;28;19926;-61
2022/03/25 04:42:14;;;;;;;;;;;;;;;17.19;52.64;100261.19;2092021;28;19928;-61
2022/03/25 04:43:14;;;;;;;;;;;;;;;17.18;52.55;100270.34;2089539;28;19920;-62
2022/03/25 04:44:15;;;;;;;;;;;;;;;17.17;52.81;100264.03;2091720;28;19971;-62
2022/03/25 04:45:15;;;;;;;;;;;;;;;17.19;52.45;100269.34;2091345;28;20363;-62
2022/03/25 04:46:16;;;;;;;;;;;;;;;17.19;52.66;100266.63;2091049;28;19916;-61
2022/03/25 04:47:16;;;;;;;;;;;;;;;17.19;52.58;100272.06;2087162;28;19942;-62
2022/03/25 04:48:16;;;;;;;;;;;;;;;17.19;52.71;100264.75;2090909;28;20728;-61
2022/03/25 04:49:17;;;;;;;;;;;;;;;17.20;52.40;100271.06;2090988;28;19960;-62
2022/03/25 04:50:17;;;;;;;;;;;;;;;17.20;52.58;100263.78;2091127;28;20637;-61
2022/03/25 04:51:18;;;;;;;;;;;;;;;17.21;52.67;100270.94;2090741;28;20008;-61
2022/03/25 04:52:19;;;;;;;;;;;;;;;17.21;52.58;100268.22;2092091;28;19927;-61
2022/03/25 04:53:19;;;;;;;;;;;;;;;17.23;52.66;100268.09;2088918;28;19965;-62
2022/03/25 04:54:20;;;;;;;;;;;;;;;17.23;52.53;100273.53;2089650;28;19924;-61
2022/03/25 04:55:20;;;;;;;;;;;;;;;17.24;52.66;100269.81;2088851;28;19926;-61
2022/03/25 04:56:21;;;;;;;;;;;;;;;17.24;52.55;100267.94;2091887;28;20291;-61
2022/03/25 04:57:21;;;;;;;;;;;;;;;17.25;52.61;100274.28;2090923;28;20490;-61
2022/03/25 04:58:22;;;;;;;;;;;;;;;17.26;52.45;100273.28;2092710;28;20672;-62
2022/03/25 04:59:22;;;;;;;;;;;;;;;17.25;52.50;100268.84;2092305;28;19920;-61
2022/03/25 05:00:22;;;;;;;;;;;;;;;17.24;52.32;100269.81;2087942;28;20395;-62
2022/03/25 05:01:23;;;;;;;;;;;;;;;17.25;52.63;100275.13;2088088;28;19912;-62
2022/03/25 05:02:23;;;;;;;;;;;;;;;17.25;52.48;100271.56;2091674;28;20870;-62
2022/03/25 05:03:24;;;;;;;;;;;;;;;17.26;52.46;100276.84;2090249;28;19927;-61
2022/03/25 05:04:24;;;;;;;;;;;;;;;17.26;52.48;100273.28;2092457;28;19912;-61
2022/03/25 05:05:25;;;;;;;;;;;;;;;17.26;52.57;100274.13;2089570;28;19912;-61
2022/03/25 05:06:25;;;;;;;;;;;;;;;17.26;52.64;100271.41;2089110;28;19981;-62
2022/03/25 05:07:26;;;;;;;;;;;;;;;17.25;52.35;100271.56;2091314;28;19955;-61
2022/03/25 05:08:26;;;;;;;;;;;;;;;17.26;52.64;100273.28;2091007;28;19912;-62
2022/03/25 05:09:27;;;;;;;;;;;;;;;17.27;52.44;100269.53;2092145;28;20669;-62
2022/03/25 05:10:28;;;;;;;;;;;;;;;17.27;52.59;100280.44;2090768;28;19920;-61